Time;durP1;ratioP1;P1;durP2;ratioP2;P2;SDS_P1;SDS_P2;PMS_P1;PMS_P2;Temp;Humidity;BMP_temperature;BMP_pressure;BME280_temperature;BME280_humidity;BME280_pressure;Samples;Min_cycle;Max_cycle;Signal;HPM_P1;HPM_P2
2024/01/28 00:02:11;;;;;;;19.05;9.05;;;;;;;1.15;100.00;103239.53;5021497;28;20417;-64
2024/01/28 00:04:36;;;;;;;17.92;8.43;;;;;;;1.14;100.00;103234.28;5016361;28;20045;-64
2024/01/28 00:07:02;;;;;;;15.75;7.72;;;;;;;1.16;100.00;103227.28;5020893;28;20100;-64
2024/01/28 00:09:27;;;;;;;16.95;8.75;;;;;;;1.15;100.00;103223.81;5018565;28;20033;-64
2024/01/28 00:11:52;;;;;;;16.75;9.05;;;;;;;1.15;100.00;103221.19;5014049;28;20084;-64
2024/01/28 00:14:18;;;;;;;16.73;8.43;;;;;;;1.14;100.00;103221.19;5019650;28;20063;-64
2024/01/28 00:16:43;;;;;;;16.77;8.38;;;;;;;1.15;100.00;103207.22;5019591;28;20252;-64
2024/01/28 00:19:09;;;;;;;22.10;8.68;;;;;;;1.15;100.00;103209.84;5015793;28;20022;-64
2024/01/28 00:21:34;;;;;;;20.15;8.57;;;;;;;1.13;100.00;103204.59;5019084;28;20025;-63
2024/01/28 00:24:02;;;;;;;17.95;8.20;;;;;;;1.13;100.00;103206.34;5015834;28;20390;-63
2024/01/28 00:26:27;;;;;;;21.50;7.70;;;;;;;1.10;100.00;103208.09;5019912;28;20036;-64
2024/01/28 00:28:52;;;;;;;16.27;7.82;;;;;;;1.09;100.00;103197.63;5014979;28;20030;-64
2024/01/28 00:31:18;;;;;;;17.23;8.68;;;;;;;1.08;100.00;103199.38;5018352;28;20030;-64
2024/01/28 00:33:43;;;;;;;15.77;7.57;;;;;;;1.07;100.00;103197.63;5018830;28;20029;-63
2024/01/28 00:36:15;;;;;;;20.40;8.52;;;;;;;1.07;100.00;103200.25;5020947;28;20022;-63
2024/01/28 00:38:40;;;;;;;19.45;8.43;;;;;;;1.05;100.00;103202.00;5020521;28;20033;-64
2024/01/28 00:41:05;;;;;;;20.95;8.48;;;;;;;1.04;100.00;103202.00;5019488;28;20391;-63
2024/01/28 00:43:30;;;;;;;17.23;8.07;;;;;;;1.03;100.00;103203.75;5016233;28;20037;-64
2024/01/28 00:45:56;;;;;;;16.15;7.70;;;;;;;1.03;100.00;103193.28;5019728;28;20387;-64
2024/01/28 00:48:21;;;;;;;15.27;8.32;;;;;;;1.01;100.00;103187.13;5015385;28;20069;-63
2024/01/28 00:50:46;;;;;;;19.63;8.18;;;;;;;1.01;100.00;103181.91;5021019;28;20092;-63
2024/01/28 00:53:12;;;;;;;15.70;8.27;;;;;;;0.99;100.00;103175.81;5016921;28;20038;-64
2024/01/28 00:55:37;;;;;;;16.35;8.40;;;;;;;0.98;100.00;103175.81;5012154;28;20344;-64
2024/01/28 00:58:02;;;;;;;15.60;8.27;;;;;;;0.96;100.00;103173.19;5017640;28;20439;-63
2024/01/28 01:00:28;;;;;;;17.83;7.40;;;;;;;0.96;100.00;103173.19;5019566;28;20026;-64
2024/01/28 01:02:54;;;;;;;18.73;8.27;;;;;;;0.96;100.00;103165.31;5018505;28;20033;-64
2024/01/28 01:05:19;;;;;;;17.88;8.38;;;;;;;0.96;100.00;103174.94;5021464;28;20033;-64
2024/01/28 01:07:44;;;;;;;15.70;8.82;;;;;;;0.96;100.00;103162.72;5021240;28;20087;-64
2024/01/28 01:10:09;;;;;;;18.63;8.20;;;;;;;0.95;100.00;103166.22;5023803;28;20061;-64
2024/01/28 01:12:35;;;;;;;18.17;8.52;;;;;;;0.96;100.00;103156.63;5021000;28;20030;-64
2024/01/28 01:15:00;;;;;;;17.40;8.13;;;;;;;0.97;100.00;103161.00;5023844;28;20080;-64
2024/01/28 01:17:25;;;;;;;14.90;8.73;;;;;;;0.98;100.00;103157.47;5018959;28;20037;-63
2024/01/28 01:19:51;;;;;;;18.23;8.52;;;;;;;0.99;100.00;103151.38;5022199;28;20038;-64
2024/01/28 01:22:16;;;;;;;20.63;8.63;;;;;;;1.01;100.00;103157.50;5020191;28;20076;-63
2024/01/28 01:24:41;;;;;;;16.20;8.02;;;;;;;1.03;100.00;103153.13;5023652;28;20402;-63
2024/01/28 01:27:07;;;;;;;17.38;7.78;;;;;;;1.03;100.00;103151.41;5020897;28;20021;-64
2024/01/28 01:29:33;;;;;;;16.80;8.25;;;;;;;1.04;100.00;103144.41;5021452;28;20025;-64
2024/01/28 01:31:58;;;;;;;16.45;8.05;;;;;;;1.05;100.00;103146.13;5018943;28;20037;-64
2024/01/28 01:34:23;;;;;;;15.55;8.82;;;;;;;1.05;100.00;103146.13;5022783;28;20029;-63
2024/01/28 01:36:48;;;;;;;14.95;8.40;;;;;;;1.05;100.00;103149.66;5019023;28;20025;-64
2024/01/28 01:39:16;;;;;;;18.30;9.10;;;;;;;1.03;100.00;103151.41;5020486;28;20491;-64
2024/01/28 01:41:42;;;;;;;17.27;8.40;;;;;;;1.03;100.00;103151.41;5017668;28;20034;-64
2024/01/28 01:44:07;;;;;;;18.23;8.32;;;;;;;1.01;100.00;103152.25;5022909;28;20447;-64
2024/01/28 01:46:33;;;;;;;19.48;8.52;;;;;;;0.98;100.00;103152.25;5020802;28;20025;-64
2024/01/28 01:48:59;;;;;;;12.40;7.10;;;;;;;0.95;100.00;103150.53;5021389;28;20538;-64
2024/01/28 01:51:25;;;;;;;16.02;7.43;;;;;;;0.94;100.00;103158.38;5022755;28;20471;-64
2024/01/28 01:53:51;;;;;;;18.98;8.45;;;;;;;0.93;100.00;103165.31;5015003;28;20037;-64
2024/01/28 01:56:17;;;;;;;14.43;8.00;;;;;;;0.88;100.00;103157.50;5020868;28;20049;-64
2024/01/28 01:58:43;;;;;;;16.05;8.27;;;;;;;0.86;100.00;103159.22;5022097;28;20447;-64
2024/01/28 02:01:11;;;;;;;18.13;8.30;;;;;;;0.85;100.00;103162.72;5019419;28;20155;-64
2024/01/28 02:03:36;;;;;;;14.57;8.13;;;;;;;0.85;100.00;103154.88;5024489;28;20033;-63
2024/01/28 02:06:02;;;;;;;14.60;7.75;;;;;;;0.83;100.00;103153.09;5018335;28;20045;-64
2024/01/28 02:08:28;;;;;;;15.15;8.25;;;;;;;0.80;100.00;103156.59;5020982;28;20479;-63
2024/01/28 02:10:54;;;;;;;15.35;8.43;;;;;;;0.76;100.00;103153.97;5017961;28;20400;-64
2024/01/28 02:13:19;;;;;;;14.57;8.00;;;;;;;0.73;100.00;103147.88;5020193;28;20029;-63
2024/01/28 02:15:45;;;;;;;15.50;8.52;;;;;;;0.71;100.00;103146.97;5017736;28;20434;-64
2024/01/28 02:18:11;;;;;;;17.58;8.88;;;;;;;0.71;100.00;103138.25;5020214;28;20108;-64
2024/01/28 02:20:36;;;;;;;14.85;7.90;;;;;;;0.70;100.00;103137.41;5017728;28;20108;-64
2024/01/28 02:23:04;;;;;;;21.55;9.30;;;;;;;0.68;100.00;103131.31;5022244;28;20025;-64
2024/01/28 02:25:29;;;;;;;16.85;8.73;;;;;;;0.67;100.00;103126.06;5018788;28;20037;-63
2024/01/28 02:27:55;;;;;;;17.15;8.60;;;;;;;0.67;100.00;103126.94;5021876;28;20394;-64
2024/01/28 02:30:20;;;;;;;17.00;9.18;;;;;;;0.64;100.00;103124.31;5016989;28;20033;-63
2024/01/28 02:32:49;;;;;;;15.82;9.48;;;;;;;0.62;100.00;103115.59;5012144;28;20129;-63
2024/01/28 02:35:15;;;;;;;19.08;8.55;;;;;;;0.65;100.00;103122.56;5018265;28;20017;-64
2024/01/28 02:37:40;;;;;;;15.43;8.75;;;;;;;0.61;100.00;103102.50;5020553;28;20485;-64
2024/01/28 02:40:06;;;;;;;13.20;7.57;;;;;;;0.58;100.00;103103.38;5016615;28;20018;-64
2024/01/28 02:42:31;;;;;;;19.52;8.65;;;;;;;0.57;100.00;103101.63;5021500;28;20044;-64
2024/01/28 02:44:58;;;;;;;18.10;8.27;;;;;;;0.54;100.00;103099.88;5020564;28;20466;-64
2024/01/28 02:47:23;;;;;;;21.35;8.43;;;;;;;0.53;100.00;103094.63;5017967;28;20042;-64
2024/01/28 02:49:49;;;;;;;16.13;8.55;;;;;;;0.51;100.00;103094.63;5017108;28;20026;-64
2024/01/28 02:52:14;;;;;;;13.38;8.65;;;;;;;0.48;100.00;103102.50;5021638;28;20030;-64
2024/01/28 02:54:40;;;;;;;14.32;8.43;;;;;;;0.47;100.00;103098.13;5022019;28;20137;-64
2024/01/28 02:57:05;;;;;;;18.25;9.68;;;;;;;0.43;100.00;103093.75;5021877;28;20033;-64
2024/01/28 02:59:31;;;;;;;18.75;9.68;;;;;;;0.42;100.00;103093.75;5019211;28;20037;-64
2024/01/28 03:01:57;;;;;;;16.95;9.43;;;;;;;0.41;100.00;103092.03;5022881;28;20037;-64
2024/01/28 03:04:22;;;;;;;24.17;9.77;;;;;;;0.37;100.00;103099.00;5019390;28;20327;-63
2024/01/28 03:06:47;;;;;;;20.33;9.77;;;;;;;0.33;100.00;103092.88;5019142;28;20078;-64
2024/01/28 03:09:13;;;;;;;16.48;9.68;;;;;;;0.30;100.00;103091.97;5015121;28;20495;-64
2024/01/28 03:11:38;;;;;;;17.65;9.70;;;;;;;0.28;100.00;103084.13;5020590;28;20053;-63
2024/01/28 03:14:04;;;;;;;14.73;8.82;;;;;;;0.25;100.00;103081.53;5021912;28;20102;-63
2024/01/28 03:16:29;;;;;;;19.33;9.77;;;;;;;0.24;100.00;103073.69;5016816;28;20471;-64
2024/01/28 03:18:55;;;;;;;16.27;8.98;;;;;;;0.22;100.00;103075.41;5016603;28;20036;-64
2024/01/28 03:21:20;;;;;;;14.45;8.75;;;;;;;0.16;100.00;103073.66;5017928;28;20534;-64
2024/01/28 03:23:46;;;;;;;19.42;8.65;;;;;;;0.14;100.00;103067.56;5021440;28;20048;-64
2024/01/28 03:26:11;;;;;;;15.98;8.60;;;;;;;0.08;100.00;103070.16;5012227;28;20440;-64
2024/01/28 03:28:37;;;;;;;17.02;9.05;;;;;;;0.07;100.00;103071.03;5018269;28;20042;-63
2024/01/28 03:31:02;;;;;;;17.70;8.85;;;;;;;0.06;100.00;103067.53;5018508;28;20029;-63
2024/01/28 03:33:27;;;;;;;15.05;8.75;;;;;;;0.05;100.00;103068.41;5019653;28;20026;-64
2024/01/28 03:35:53;;;;;;;17.02;8.85;;;;;;;0.03;100.00;103075.34;5016274;28;20487;-63
2024/01/28 03:38:18;;;;;;;17.27;8.45;;;;;;;0.01;100.00;103066.63;5020088;28;20025;-64
2024/01/28 03:40:43;;;;;;;13.88;8.75;;;;;;;0.01;100.00;103071.00;5015455;28;20038;-64
2024/01/28 03:43:09;;;;;;;13.45;8.43;;;;;;;-0.02;100.00;103064.91;5018186;28;20025;-63
2024/01/28 03:45:34;;;;;;;14.07;8.40;;;;;;;-0.06;100.00;103063.13;5019391;28;20037;-63
2024/01/28 03:48:00;;;;;;;17.27;8.43;;;;;;;-0.07;100.00;103066.59;5022484;28;20048;-63
2024/01/28 03:50:25;;;;;;;15.75;8.52;;;;;;;-0.09;100.00;103059.66;5020617;28;20072;-63
2024/01/28 03:52:50;;;;;;;17.85;8.55;;;;;;;-0.12;100.00;103054.41;5015486;28;20033;-63
2024/01/28 03:55:16;;;;;;;15.35;8.23;;;;;;;-0.15;100.00;103057.00;5017917;28;20131;-63
2024/01/28 03:57:43;;;;;;;17.02;8.55;;;;;;;-0.17;100.00;103062.22;5019886;28;20386;-63
2024/01/28 04:00:11;;;;;;;19.65;8.00;;;;;;;-0.21;100.00;103058.72;5017332;28;20095;-64
2024/01/28 04:02:37;;;;;;;18.45;8.13;;;;;;;-0.23;100.00;103060.47;5018384;28;20048;-64
2024/01/28 04:05:03;;;;;;;15.70;7.97;;;;;;;-0.24;100.00;103066.53;5013053;28;20058;-63
2024/01/28 04:07:29;;;;;;;14.98;8.43;;;;;;;-0.23;100.00;103067.44;5019947;28;20056;-63
2024/01/28 04:09:54;;;;;;;14.10;8.50;;;;;;;-0.24;100.00;103070.91;5017791;28;20570;-64
2024/01/28 04:12:20;;;;;;;15.65;7.85;;;;;;;-0.24;100.00;103063.94;5019472;28;20045;-63
2024/01/28 04:14:45;;;;;;;17.42;7.63;;;;;;;-0.24;100.00;103066.53;5020611;28;20033;-64
2024/01/28 04:17:10;;;;;;;18.65;7.78;;;;;;;-0.24;100.00;103058.72;5018730;28;20032;-64
2024/01/28 04:19:36;;;;;;;15.55;8.30;;;;;;;-0.25;100.00;103051.75;5016682;28;20026;-64
2024/01/28 04:22:01;;;;;;;14.25;7.28;;;;;;;-0.25;100.00;103053.47;5016907;28;20232;-63
2024/01/28 04:24:26;;;;;;;12.73;7.25;;;;;;;-0.26;100.00;103047.38;5018018;28;20058;-63
2024/01/28 04:26:53;;;;;;;18.20;8.05;;;;;;;-0.24;100.00;103048.25;5018197;28;20413;-64
2024/01/28 04:29:18;;;;;;;15.88;7.47;;;;;;;-0.24;100.00;103037.81;5019658;28;20100;-64
2024/01/28 04:31:44;;;;;;;13.95;7.28;;;;;;;-0.21;100.00;103039.59;5018985;28;20038;-64
2024/01/28 04:34:10;;;;;;;11.75;6.82;;;;;;;-0.20;100.00;103028.25;5016825;28;20065;-64
2024/01/28 04:36:35;;;;;;;16.90;6.78;;;;;;;-0.20;100.00;103020.41;5011984;28;20530;-64
2024/01/28 04:39:01;;;;;;;18.58;7.65;;;;;;;-0.20;100.00;103016.09;5023195;28;20036;-64
2024/01/28 04:41:27;;;;;;;12.77;6.90;;;;;;;-0.20;100.00;103015.19;5022041;28;20032;-64
2024/01/28 04:43:52;;;;;;;15.38;7.20;;;;;;;-0.20;100.00;103023.91;5020652;28;20397;-64
2024/01/28 04:46:18;;;;;;;14.70;7.05;;;;;;;-0.20;100.00;103021.31;5024411;28;20018;-64
2024/01/28 04:48:44;;;;;;;17.60;6.90;;;;;;;-0.21;100.00;103019.53;5024645;28;20017;-64
2024/01/28 04:51:09;;;;;;;15.68;6.63;;;;;;;-0.20;100.00;103018.69;5023598;28;20072;-64
2024/01/28 04:53:34;;;;;;;14.10;6.38;;;;;;;-0.19;100.00;103015.19;5021294;28;20061;-64
2024/01/28 04:56:00;;;;;;;16.50;6.60;;;;;;;-0.16;100.00;103010.88;5024892;28;20095;-64
2024/01/28 04:58:25;;;;;;;12.48;6.57;;;;;;;-0.15;100.00;103007.38;5021500;28;20042;-64
2024/01/28 05:00:50;;;;;;;13.80;6.20;;;;;;;-0.14;100.00;103010.00;5018893;28;20042;-64
2024/01/28 05:03:16;;;;;;;11.65;6.40;;;;;;;-0.13;100.00;103014.34;5022156;28;20506;-64
2024/01/28 05:05:42;;;;;;;14.13;6.32;;;;;;;-0.13;100.00;103003.91;5026854;28;20410;-64
2024/01/28 05:08:07;;;;;;;15.05;6.70;;;;;;;-0.13;100.00;103010.84;5012859;28;20026;-64
2024/01/28 05:10:32;;;;;;;13.70;6.15;;;;;;;-0.13;100.00;103014.34;5019827;28;20483;-64
2024/01/28 05:12:58;;;;;;;13.05;6.72;;;;;;;-0.13;100.00;103011.75;5023220;28;20059;-64
2024/01/28 05:15:23;;;;;;;18.95;6.72;;;;;;;-0.13;100.00;103016.06;5020619;28;20026;-64
2024/01/28 05:17:50;;;;;;;14.13;6.07;;;;;;;-0.12;100.00;103010.84;5023528;28;20088;-64
2024/01/28 05:20:16;;;;;;;15.40;6.72;;;;;;;-0.14;100.00;103009.13;5016470;28;20034;-64
2024/01/28 05:22:42;;;;;;;18.83;6.72;;;;;;;-0.14;100.00;103009.13;5022213;28;20469;-64
2024/01/28 05:25:09;;;;;;;13.10;5.95;;;;;;;-0.16;100.00;102998.69;5018382;28;20129;-64
2024/01/28 05:27:34;;;;;;;16.77;6.05;;;;;;;-0.17;100.00;102994.31;5020906;28;20017;-64
2024/01/28 05:30:00;;;;;;;12.63;6.93;;;;;;;-0.18;100.00;102992.59;5019993;28;20041;-64
2024/01/28 05:32:26;;;;;;;14.50;6.47;;;;;;;-0.19;100.00;102990.81;5021277;28;20017;-64
2024/01/28 05:34:51;;;;;;;12.40;6.25;;;;;;;-0.19;100.00;102988.22;5016941;28;20113;-64
2024/01/28 05:37:16;;;;;;;15.05;6.85;;;;;;;-0.19;100.00;102980.38;5021965;28;20523;-64
2024/01/28 05:39:42;;;;;;;13.73;6.13;;;;;;;-0.19;100.00;102977.75;5018529;28;20096;-64
2024/01/28 05:42:07;;;;;;;11.70;6.28;;;;;;;-0.19;100.00;102970.78;5022825;28;20402;-64
2024/01/28 05:44:33;;;;;;;15.05;6.47;;;;;;;-0.20;100.00;102969.06;5020092;28;20071;-65
2024/01/28 05:46:58;;;;;;;16.40;6.50;;;;;;;-0.20;100.00;102966.47;5022117;28;20045;-64
2024/01/28 05:49:23;;;;;;;12.50;6.53;;;;;;;-0.19;100.00;102967.31;5023023;28;20026;-64
2024/01/28 05:51:48;;;;;;;15.55;6.90;;;;;;;-0.19;100.00;102965.56;5021428;28;20022;-65
2024/01/28 05:54:14;;;;;;;13.98;7.20;;;;;;;-0.19;100.00;102964.72;5019361;28;20021;-65
2024/01/28 05:56:39;;;;;;;17.83;7.35;;;;;;;-0.21;100.00;102959.47;5021382;28;20634;-64
2024/01/28 05:59:04;;;;;;;12.77;6.78;;;;;;;-0.23;100.00;102963.84;5020732;28;20475;-64
2024/01/28 06:01:30;;;;;;;20.17;7.32;;;;;;;-0.25;100.00;102949.91;5020349;28;20483;-64
2024/01/28 06:03:55;;;;;;;13.80;6.55;;;;;;;-0.28;100.00;102955.13;5022433;28;20061;-64
2024/01/28 06:06:20;;;;;;;15.43;6.50;;;;;;;-0.31;100.00;102949.88;5020132;28;20034;-64
2024/01/28 06:08:45;;;;;;;13.85;6.65;;;;;;;-0.32;100.00;102942.91;5020132;28;20037;-64
2024/01/28 06:11:11;;;;;;;15.63;6.60;;;;;;;-0.32;100.00;102948.13;5025041;28;20023;-64
2024/01/28 06:13:36;;;;;;;12.32;6.90;;;;;;;-0.34;100.00;102935.94;5019615;28;20041;-65
2024/01/28 06:16:01;;;;;;;12.07;6.60;;;;;;;-0.33;100.00;102938.56;5021195;28;20048;-64
2024/01/28 06:18:27;;;;;;;13.80;6.75;;;;;;;-0.34;100.00;102939.44;5020713;28;20494;-64
2024/01/28 06:20:52;;;;;;;12.43;6.70;;;;;;;-0.33;100.00;102935.06;5016191;28;20037;-64
2024/01/28 06:23:18;;;;;;;13.45;6.57;;;;;;;-0.34;100.00;102933.34;5020919;28;20489;-64
2024/01/28 06:25:43;;;;;;;12.07;6.75;;;;;;;-0.36;100.00;102935.94;5023388;28;20033;-64
2024/01/28 06:28:09;;;;;;;13.43;6.65;;;;;;;-0.35;100.00;102929.88;5018068;28;20030;-64
2024/01/28 06:30:35;;;;;;;15.65;6.88;;;;;;;-0.35;100.00;102931.59;5021245;28;20172;-64
2024/01/28 06:33:02;;;;;;;11.85;6.53;;;;;;;-0.35;100.00;102940.31;5013846;28;20057;-64
2024/01/28 06:35:28;;;;;;;16.00;6.60;;;;;;;-0.34;100.00;102934.19;5015561;28;20029;-64
2024/01/28 06:37:53;;;;;;;18.60;6.75;;;;;;;-0.33;100.00;102924.63;5018301;28;20038;-64
2024/01/28 06:40:18;;;;;;;15.88;7.53;;;;;;;-0.33;100.00;102917.69;5020251;28;20040;-64
2024/01/28 06:42:44;;;;;;;14.38;6.78;;;;;;;-0.34;100.00;102917.69;5023420;28;20036;-64
2024/01/28 06:45:09;;;;;;;10.13;6.03;;;;;;;-0.34;100.00;102915.94;5021494;28;20124;-64
2024/01/28 06:47:34;;;;;;;12.18;6.13;;;;;;;-0.33;100.00;102916.78;5019643;28;20038;-64
2024/01/28 06:50:00;;;;;;;13.27;6.20;;;;;;;-0.33;100.00;102915.06;5021488;28;20080;-64
2024/01/28 06:52:25;;;;;;;15.38;6.00;;;;;;;-0.33;100.00;102914.19;5020493;28;20403;-65
2024/01/28 06:54:50;;;;;;;9.85;5.70;;;;;;;-0.33;100.00;102915.06;5018915;28;20081;-64
2024/01/28 06:57:16;;;;;;;11.85;5.97;;;;;;;-0.31;100.00;102913.31;5018993;28;20028;-65
2024/01/28 06:59:44;;;;;;;11.07;6.32;;;;;;;-0.31;100.00;102909.84;5021698;28;20025;-65
2024/01/28 07:02:09;;;;;;;12.10;6.07;;;;;;;-0.29;100.00;102913.34;5014484;28;20033;-64
2024/01/28 07:04:35;;;;;;;12.82;6.57;;;;;;;-0.30;100.00;102906.34;5015061;28;20845;-65
2024/01/28 07:07:00;;;;;;;12.02;5.93;;;;;;;-0.36;100.00;102917.66;5013002;28;20044;-65
2024/01/28 07:09:25;;;;;;;15.85;5.75;;;;;;;-0.40;100.00;102922.00;5021546;28;20033;-64
2024/01/28 07:11:51;;;;;;;14.85;6.00;;;;;;;-0.47;100.00;102925.44;5015176;28;20041;-65
2024/01/28 07:14:17;;;;;;;9.38;5.43;;;;;;;-0.51;100.00;102928.06;5020512;28;20025;-64
2024/01/28 07:16:42;;;;;;;12.52;5.30;;;;;;;-0.56;100.00;102930.66;5010792;28;20037;-64
2024/01/28 07:19:07;;;;;;;9.75;5.28;;;;;;;-0.60;100.00;102921.97;5016028;28;20036;-64
2024/01/28 07:21:33;;;;;;;8.30;5.78;;;;;;;-0.64;100.00;102922.78;5006197;28;20091;-64
2024/01/28 07:23:58;;;;;;;12.75;5.10;;;;;;;-0.66;100.00;102916.72;5016005;28;20033;-64
2024/01/28 07:26:24;;;;;;;11.65;5.78;;;;;;;-0.70;100.00;102920.19;5019952;28;20072;-65
2024/01/28 07:28:50;;;;;;;13.73;5.53;;;;;;;-0.74;100.00;102905.38;5014135;28;20029;-64
2024/01/28 07:31:15;;;;;;;13.23;5.32;;;;;;;-0.77;100.00;102906.25;5015419;28;20026;-64
2024/01/28 07:33:40;;;;;;;13.75;5.60;;;;;;;-0.79;100.00;102905.34;5019269;28;20711;-64
2024/01/28 07:36:06;;;;;;;9.65;4.88;;;;;;;-0.82;100.00;102901.84;5018931;28;20037;-64
2024/01/28 07:38:33;;;;;;;13.02;6.05;;;;;;;-0.85;100.00;102904.44;5016890;28;20497;-64
2024/01/28 07:40:59;;;;;;;14.50;6.00;;;;;;;-0.88;100.00;102900.09;5016249;28;20061;-64
2024/01/28 07:43:24;;;;;;;13.57;5.22;;;;;;;-0.88;100.00;102902.72;5022963;28;20029;-64
2024/01/28 07:45:50;;;;;;;12.30;6.07;;;;;;;-0.91;100.00;102902.69;5016487;28;20033;-64
2024/01/28 07:48:16;;;;;;;14.13;6.10;;;;;;;-0.92;100.00;102898.31;5021319;28;20045;-64
2024/01/28 07:50:42;;;;;;;13.02;5.72;;;;;;;-0.94;100.00;102900.06;5011764;28;20029;-64
2024/01/28 07:53:07;;;;;;;10.75;5.90;;;;;;;-0.94;100.00;102900.94;5016005;28;20021;-64
2024/01/28 07:55:33;;;;;;;14.18;6.55;;;;;;;-0.94;100.00;102900.06;5012696;28;20427;-64
2024/01/28 07:57:58;;;;;;;9.82;5.53;;;;;;;-0.94;100.00;102900.06;5014215;28;20159;-64
2024/01/28 08:00:25;;;;;;;10.98;5.60;;;;;;;-0.94;100.00;102892.25;5013018;28;20072;-64
2024/01/28 08:02:51;;;;;;;13.90;5.88;;;;;;;-0.95;100.00;102886.16;5017237;28;20022;-64
2024/01/28 08:05:16;;;;;;;14.52;5.68;;;;;;;-0.95;100.00;102894.00;5017084;28;20032;-64
2024/01/28 08:07:42;;;;;;;14.13;6.47;;;;;;;-0.94;100.00;102897.47;5014216;28;20564;-64
2024/01/28 08:10:07;;;;;;;10.40;5.68;;;;;;;-0.93;100.00;102892.25;5015346;28;20383;-64
2024/01/28 08:12:33;;;;;;;16.15;5.97;;;;;;;-0.94;100.00;102898.31;5017080;28;20037;-64
2024/01/28 08:14:58;;;;;;;13.77;6.38;;;;;;;-0.90;100.00;102899.19;5018559;28;20053;-64
2024/01/28 08:17:24;;;;;;;11.32;5.97;;;;;;;-0.86;100.00;102893.16;5018717;28;20487;-64
2024/01/28 08:19:49;;;;;;;9.23;5.88;;;;;;;-0.83;100.00;102884.47;5014245;28;20068;-64
2024/01/28 08:22:15;;;;;;;10.38;5.45;;;;;;;-0.79;100.00;102881.00;5018971;28;20032;-64
2024/01/28 08:24:40;;;;;;;11.68;6.15;;;;;;;-0.77;100.00;102876.66;5018459;28;20500;-64
2024/01/28 08:27:05;;;;;;;11.80;5.93;;;;;;;-0.76;100.00;102874.03;5020314;28;20485;-64
2024/01/28 08:29:31;;;;;;;12.63;6.18;;;;;;;-0.72;100.00;102877.53;5014375;28;20113;-64
2024/01/28 08:31:57;;;;;;;12.20;6.00;;;;;;;-0.66;100.00;102879.31;5016122;28;20391;-64
2024/01/28 08:34:23;;;;;;;10.43;5.63;;;;;;;-0.62;100.00;102875.81;5016891;28;20487;-64
2024/01/28 08:36:48;;;;;;;17.77;6.70;;;;;;;-0.57;100.00;102867.16;5017161;28;20029;-64
2024/01/28 08:39:14;;;;;;;9.77;5.60;;;;;;;-0.50;100.00;102861.94;5017868;28;20438;-64
2024/01/28 08:41:40;;;;;;;14.02;6.38;;;;;;;-0.42;100.00;102870.66;5018815;28;20033;-64
2024/01/28 08:44:06;;;;;;;9.98;5.55;;;;;;;-0.34;100.00;102866.31;5015325;28;20367;-65
2024/01/28 08:46:32;;;;;;;11.90;5.63;;;;;;;-0.26;100.00;102864.59;5018455;28;20086;-64
2024/01/28 08:48:57;;;;;;;9.40;5.25;;;;;;;-0.15;100.00;102853.28;5017441;28;20430;-64
2024/01/28 08:51:23;;;;;;;12.50;5.18;;;;;;;-0.07;100.00;102851.53;5015332;28;20048;-64
2024/01/28 08:53:48;;;;;;;13.27;5.72;;;;;;;0.03;100.00;102861.13;5013137;28;20065;-64
2024/01/28 08:56:13;;;;;;;12.63;6.00;;;;;;;0.10;100.00;102857.66;5019165;28;20042;-64
2024/01/28 08:58:38;;;;;;;10.77;6.13;;;;;;;0.21;100.00;102862.00;5019116;28;20033;-64
2024/01/28 09:01:05;;;;;;;11.07;6.53;;;;;;;0.30;100.00;102865.47;5018941;28;20124;-64
2024/01/28 09:03:30;;;;;;;10.38;6.07;;;;;;;0.39;100.00;102864.59;5016880;28;20021;-65
2024/01/28 09:05:55;;;;;;;12.85;7.15;;;;;;;0.46;100.00;102862.81;5017503;28;20103;-64
2024/01/28 09:08:21;;;;;;;15.38;8.10;;;;;;;0.58;100.00;102859.31;5014995;28;20030;-64
2024/01/28 09:10:46;;;;;;;18.10;9.20;;;;;;;0.67;100.00;102854.94;5020726;28;20120;-64
2024/01/28 09:13:11;;;;;;;13.38;8.88;;;;;;;0.76;100.00;102855.78;5018625;28;20033;-64
2024/01/28 09:15:36;;;;;;;15.15;8.20;;;;;;;0.85;100.00;102848.78;5016059;28;20120;-65
2024/01/28 09:18:02;;;;;;;10.88;7.65;;;;;;;0.97;100.00;102852.22;5014728;28;20423;-64
2024/01/28 09:20:27;;;;;;;14.18;7.78;;;;;;;1.10;100.00;102853.91;5013634;28;20030;-64
2024/01/28 09:22:52;;;;;;;13.95;6.80;;;;;;;1.22;100.00;102850.38;5017222;28;20080;-64
2024/01/28 09:25:18;;;;;;;12.80;6.75;;;;;;;1.35;100.00;102844.19;5020855;28;20385;-64
2024/01/28 09:27:48;;;;;;;11.70;6.70;;;;;;;1.51;100.00;102850.19;5017370;28;20026;-65
2024/01/28 09:30:13;;;;;;;13.52;7.10;;;;;;;1.67;100.00;102841.34;5021616;28;20572;-65
2024/01/28 09:32:39;;;;;;;9.40;5.75;;;;;;;1.81;98.13;102848.22;5020194;28;20757;-64
2024/01/28 09:35:05;;;;;;;10.95;5.68;;;;;;;1.96;96.81;102836.75;5018665;28;20026;-65
2024/01/28 09:37:30;;;;;;;9.32;5.70;;;;;;;2.12;96.93;102829.63;5015456;28;20168;-65
2024/01/28 09:39:55;;;;;;;11.52;5.72;;;;;;;2.30;96.99;102836.44;5010517;28;20022;-65
2024/01/28 09:42:47;;;;;;;11.95;5.70;;;;;;;2.44;94.79;102833.69;5017608;28;20494;-65
2024/01/28 09:45:13;;;;;;;9.10;5.20;;;;;;;2.66;95.33;102834.31;5017558;28;20034;-65
2024/01/28 09:47:39;;;;;;;12.15;5.07;;;;;;;2.78;93.65;102829.81;5023194;28;20033;-65
2024/01/28 09:50:08;;;;;;;12.18;5.20;;;;;;;2.94;93.59;102834.84;5022481;28;20017;-65
2024/01/28 09:52:34;;;;;;;9.30;5.22;;;;;;;3.06;92.91;102824.19;5051953;28;20033;-65
2024/01/28 09:54:59;;;;;;;9.70;5.10;;;;;;;3.19;93.39;102827.53;5020807;28;20045;-65
2024/01/28 09:57:25;;;;;;;9.45;4.80;;;;;;;3.34;90.93;102824.69;5017615;28;20018;-65
2024/01/28 09:59:50;;;;;;;8.15;5.20;;;;;;;3.49;90.39;102822.72;5016594;28;20068;-65
2024/01/28 10:02:17;;;;;;;9.90;4.85;;;;;;;3.63;91.10;102827.75;5021264;28;20116;-65
2024/01/28 10:04:45;;;;;;;9.07;4.95;;;;;;;3.75;88.01;102826.69;5019499;28;20455;-65
2024/01/28 10:07:11;;;;;;;7.57;4.50;;;;;;;3.88;89.15;102817.72;5022911;28;20025;-65
2024/01/28 10:09:37;;;;;;;13.68;4.57;;;;;;;4.01;87.16;102823.63;5020573;28;20026;-65
2024/01/28 10:12:03;;;;;;;9.15;4.32;;;;;;;4.10;85.75;102810.34;5020539;28;20104;-65
2024/01/28 10:14:28;;;;;;;7.40;4.38;;;;;;;4.20;84.08;102811.91;5016070;28;20034;-65
2024/01/28 10:16:56;;;;;;;11.90;5.05;;;;;;;4.32;82.08;102809.97;5018606;28;20490;-65
2024/01/28 10:19:21;;;;;;;7.95;4.35;;;;;;;4.43;81.90;102802.72;5021576;28;20037;-65
2024/01/28 10:21:46;;;;;;;7.82;4.32;;;;;;;4.55;81.57;102799.00;5017357;28;20434;-65
2024/01/28 10:24:15;;;;;;;8.27;4.53;;;;;;;4.68;82.79;102799.59;5017849;28;20487;-65
2024/01/28 10:26:40;;;;;;;7.20;4.50;;;;;;;4.77;79.43;102804.69;5017561;28;20099;-65
2024/01/28 10:29:10;;;;;;;10.32;4.93;;;;;;;4.91;80.40;102802.63;5015667;28;20022;-65
2024/01/28 10:31:39;;;;;;;10.43;5.05;;;;;;;5.07;82.19;102800.53;5017179;28;20495;-65
2024/01/28 10:34:04;;;;;;;10.75;6.80;;;;;;;5.22;81.75;102794.03;5016196;28;20388;-65
2024/01/28 10:36:33;;;;;;;11.63;6.40;;;;;;;5.33;77.55;102799.94;5016608;28;20036;-65
2024/01/28 10:39:04;;;;;;;9.48;5.90;;;;;;;5.50;79.30;102802.16;5018462;28;20071;-65
2024/01/28 10:41:31;;;;;;;14.02;7.80;;;;;;;5.63;77.23;102796.59;5021766;28;20025;-65
2024/01/28 10:43:57;;;;;;;9.02;5.57;;;;;;;5.68;74.40;102798.22;5022042;28;20544;-65
2024/01/28 10:46:34;;;;;;;10.77;4.72;;;;;;;5.75;74.66;102799.81;5017892;28;20388;-65
2024/01/28 10:49:03;;;;;;;8.80;5.32;;;;;;;5.87;74.43;102798.63;5019672;28;20034;-65
2024/01/28 10:51:31;;;;;;;9.10;4.60;;;;;;;6.00;72.97;102798.38;5015967;28;20430;-65
2024/01/28 10:53:57;;;;;;;8.20;4.25;;;;;;;6.09;71.43;102795.47;5018334;28;20284;-65
2024/01/28 10:56:23;;;;;;;6.57;3.95;;;;;;;6.16;71.72;102782.97;5018162;28;20115;-65
2024/01/28 10:58:50;;;;;;;6.15;4.93;;;;;;;6.26;69.53;102769.50;5016851;28;20491;-65
2024/01/28 11:01:16;;;;;;;8.25;4.05;;;;;;;6.39;70.86;102770.00;5019912;28;20022;-63
2024/01/28 11:03:42;;;;;;;7.70;4.10;;;;;;;6.48;68.79;102769.75;5020861;28;20032;-63
2024/01/28 11:06:08;;;;;;;9.02;4.82;;;;;;;6.59;73.10;102763.31;5017357;28;20036;-64
2024/01/28 11:08:33;;;;;;;7.93;4.13;;;;;;;6.68;70.63;102757.78;5016937;28;20030;-63
2024/01/28 11:10:59;;;;;;;8.23;4.80;;;;;;;6.80;72.25;102749.47;5019463;28;20025;-63